createdAt,value
2022-09-12T00:01:16.495Z,20.21
2022-09-12T00:03:18.852Z,20.21
2022-09-12T00:05:21.821Z,20.22
2022-09-12T00:07:23.931Z,20.22
2022-09-12T00:09:26.092Z,20.22
2022-09-12T00:11:28.840Z,20.22
2022-09-12T00:13:31.019Z,20.20
2022-09-12T00:15:33.061Z,20.18
2022-09-12T00:17:36.831Z,20.19
2022-09-12T00:19:38.884Z,20.18
2022-09-12T00:21:41.951Z,20.21
2022-09-12T00:23:45.433Z,20.22
2022-09-12T00:25:48.772Z,20.18
2022-09-12T00:27:53.893Z,20.12
2022-09-12T00:29:56.242Z,20.09
2022-09-12T00:32:00.467Z,20.09
2022-09-12T00:34:05.509Z,20.08
2022-09-12T00:36:15.547Z,20.08
2022-09-12T00:38:17.933Z,20.02
2022-09-12T00:40:20.083Z,20.00
2022-09-12T00:42:22.675Z,19.96
2022-09-12T00:44:24.632Z,19.95
2022-09-12T00:46:41.309Z,19.95
2022-09-12T00:48:49.593Z,19.94
2022-09-12T00:50:53.869Z,19.98
2022-09-12T00:53:03.136Z,19.98
2022-09-12T00:55:13.378Z,19.96
2022-09-12T00:57:18.708Z,19.99
2022-09-12T00:59:37.786Z,19.93
2022-09-12T01:01:44.732Z,19.92
2022-09-12T01:03:47.796Z,19.91
2022-09-12T01:06:07.768Z,19.86
2022-09-12T01:08:12.071Z,19.90
2022-09-12T01:10:15.223Z,19.89
2022-09-12T01:12:17.866Z,19.90
2022-09-12T01:14:20.878Z,19.94
2022-09-12T01:16:22.937Z,19.96
2022-09-12T01:18:51.303Z,19.87
2022-09-12T01:21:41.947Z,19.81
2022-09-12T01:24:14.840Z,19.78
2022-09-12T01:26:50.659Z,19.73
2022-09-12T01:29:11.412Z,19.74
2022-09-12T01:31:20.222Z,19.76
2022-09-12T01:33:37.301Z,19.76
2022-09-12T01:36:09.961Z,19.78
2022-09-12T01:38:39.970Z,19.74
2022-09-12T01:41:04.038Z,19.73
2022-09-12T01:43:32.833Z,19.70
2022-09-12T01:45:46.764Z,19.71
2022-09-12T01:48:20.393Z,19.72
2022-09-12T01:50:30.457Z,19.75
2022-09-12T01:52:56.565Z,19.72
2022-09-12T01:55:25.649Z,19.77
2022-09-12T01:57:37.569Z,19.78
2022-09-12T01:59:51.461Z,19.75
2022-09-12T02:02:18.468Z,19.68
2022-09-12T02:04:33.956Z,19.72
2022-09-12T02:07:05.621Z,19.75
2022-09-12T02:09:15.363Z,19.72
2022-09-12T02:11:18.609Z,19.71
2022-09-12T02:13:38.162Z,19.56
2022-09-12T02:15:49.935Z,19.55
2022-09-12T02:17:53.757Z,19.64
2022-09-12T02:20:03.704Z,19.62
2022-09-12T02:22:10.130Z,19.67
2022-09-12T02:24:15.160Z,19.65
2022-09-12T02:26:24.086Z,19.56
2022-09-12T02:28:35.499Z,19.54
2022-09-12T02:30:48.176Z,19.50
2022-09-12T02:33:01.694Z,19.52
2022-09-12T02:35:20.191Z,19.46
2022-09-12T02:37:57.532Z,19.36
2022-09-12T02:40:00.990Z,19.38
2022-09-12T02:42:04.473Z,19.28
2022-09-12T02:44:06.694Z,19.14
2022-09-12T02:46:15.442Z,19.12
2022-09-12T02:48:17.629Z,19.12
2022-09-12T02:50:20.273Z,19.14
2022-09-12T02:52:22.685Z,19.05
2022-09-12T02:54:25.892Z,19.02
2022-09-12T02:56:30.934Z,19.01
2022-09-12T02:58:33.934Z,19.04
2022-09-12T03:00:45.338Z,19.05
2022-09-12T03:03:34.732Z,19.07
2022-09-12T03:06:01.334Z,19.06
2022-09-12T03:08:15.207Z,19.09
2022-09-12T03:10:20.586Z,19.16
2022-09-12T03:12:45.585Z,19.11
2022-09-12T03:15:06.378Z,19.05
2022-09-12T03:17:36.471Z,19.05
2022-09-12T03:19:55.131Z,19.03
2022-09-12T03:22:16.002Z,19.02
2022-09-12T03:24:18.668Z,19.06
2022-09-12T03:26:28.769Z,19.00
2022-09-12T03:28:33.383Z,18.97
2022-09-12T03:30:54.881Z,18.88
2022-09-12T03:32:57.055Z,18.94
2022-09-12T03:34:59.199Z,18.88
2022-09-12T03:37:02.921Z,18.88
2022-09-12T03:39:04.960Z,18.90
2022-09-12T03:41:07.588Z,18.93
2022-09-12T03:43:11.218Z,18.96
2022-09-12T03:45:13.321Z,18.92
2022-09-12T03:47:15.172Z,18.92
2022-09-12T03:49:17.989Z,18.98
2022-09-12T03:51:20.034Z,18.98
2022-09-12T03:53:22.299Z,18.95
2022-09-12T03:55:24.363Z,18.88
2022-09-12T03:57:26.449Z,18.82
2022-09-12T03:59:28.397Z,18.81
2022-09-12T04:01:31.106Z,18.84
2022-09-12T04:03:33.367Z,18.84
2022-09-12T04:05:38.476Z,18.83
2022-09-12T04:07:40.776Z,18.86
2022-09-12T04:09:43.057Z,18.85
2022-09-12T04:11:47.500Z,18.84
2022-09-12T04:13:49.909Z,18.84
2022-09-12T04:15:59.570Z,18.80
2022-09-12T04:18:05.697Z,18.85
2022-09-12T04:20:08.445Z,18.85
2022-09-12T04:22:10.410Z,18.85
2022-09-12T04:24:12.750Z,18.84
2022-09-12T04:26:19.932Z,18.83
2022-09-12T04:28:23.304Z,18.80
2022-09-12T04:30:25.655Z,18.74
2022-09-12T04:32:30.275Z,18.74
2022-09-12T04:34:32.788Z,18.76
2022-09-12T04:36:35.127Z,18.71
2022-09-12T04:38:37.817Z,18.72
2022-09-12T04:40:40.329Z,18.74
2022-09-12T04:42:42.565Z,18.75
2022-09-12T04:44:45.761Z,18.74
2022-09-12T04:46:50.450Z,18.74
2022-09-12T04:48:56.638Z,18.76
2022-09-12T04:51:11.505Z,18.74
2022-09-12T04:53:14.111Z,18.76
2022-09-12T04:55:16.599Z,18.75
2022-09-12T04:57:18.875Z,18.73
2022-09-12T04:59:22.302Z,18.69
2022-09-12T05:01:25.241Z,18.58
2022-09-12T05:03:28.790Z,18.62
2022-09-12T05:05:31.241Z,18.60
2022-09-12T05:07:34.007Z,18.61
2022-09-12T05:09:36.379Z,18.68
2022-09-12T05:14:09.341Z,18.92
2022-09-12T05:16:13.790Z,18.98
2022-09-12T05:18:15.747Z,19.06
2022-09-12T05:20:17.634Z,19.13
2022-09-12T05:22:19.430Z,19.21
2022-09-12T05:24:21.116Z,19.29
2022-09-12T05:26:23.584Z,19.25
2022-09-12T05:28:29.576Z,19.19
2022-09-12T05:30:31.357Z,19.22
2022-09-12T05:32:33.231Z,19.22
2022-09-12T05:34:34.947Z,19.26
2022-09-12T05:36:37.263Z,19.34
2022-09-12T05:38:39.296Z,19.47
2022-09-12T05:40:41.050Z,19.50
2022-09-12T05:42:43.001Z,19.45
2022-09-12T05:44:44.736Z,19.33
2022-09-12T05:46:50.466Z,19.37
2022-09-12T05:48:56.468Z,19.30
2022-09-12T05:51:03.875Z,19.18
2022-09-12T05:53:05.709Z,19.22
2022-09-12T05:55:08.074Z,19.25
2022-09-12T05:57:09.822Z,19.26
2022-09-12T05:59:21.220Z,19.31
2022-09-12T06:01:24.217Z,19.46
2022-09-12T06:03:26.285Z,19.57
2022-09-12T06:05:28.088Z,19.56
2022-09-12T06:07:29.850Z,19.57
2022-09-12T06:09:32.753Z,19.54
2022-09-12T06:11:37.350Z,19.52
2022-09-12T06:13:42.733Z,19.47
2022-09-12T06:15:44.499Z,19.33
2022-09-12T06:17:51.392Z,19.35
2022-09-12T06:19:53.587Z,19.31
2022-09-12T06:21:55.446Z,19.28
2022-09-12T06:23:58.966Z,19.37
2022-09-12T06:26:01.537Z,19.39
2022-09-12T06:28:03.425Z,19.45
2022-09-12T06:30:06.999Z,19.47
2022-09-12T06:32:10.541Z,19.45
2022-09-12T06:34:14.680Z,19.36
2022-09-12T06:36:22.611Z,19.37
2022-09-12T06:38:24.368Z,19.38
2022-09-12T06:40:27.591Z,19.45
2022-09-12T06:42:29.273Z,19.40
2022-09-12T06:44:32.135Z,19.43
2022-09-12T06:46:33.996Z,19.53
2022-09-12T06:48:41.041Z,19.53
2022-09-12T06:50:43.773Z,19.60
2022-09-12T06:52:45.785Z,19.65
2022-09-12T06:54:47.923Z,19.68
2022-09-12T06:56:49.659Z,19.64
2022-09-12T06:58:53.217Z,19.66
2022-09-12T07:01:19.340Z,19.62
2022-09-12T07:03:21.242Z,19.63
2022-09-12T07:05:23.546Z,19.58
2022-09-12T07:07:25.318Z,19.51
2022-09-12T07:09:27.168Z,19.48
2022-09-12T07:11:32.145Z,19.55
2022-09-12T07:13:34.051Z,19.58
2022-09-12T07:15:36.516Z,19.63
2022-09-12T07:17:38.249Z,19.64
2022-09-12T07:19:40.108Z,19.60
2022-09-12T07:21:42.202Z,19.66
2022-09-12T07:23:45.569Z,19.84
2022-09-12T07:25:57.163Z,19.97
2022-09-12T07:27:59.302Z,20.18
2022-09-12T07:30:01.601Z,20.32
2022-09-12T07:32:04.254Z,20.41
2022-09-12T07:34:06.926Z,20.48
2022-09-12T07:36:12.559Z,20.54
2022-09-12T07:38:14.383Z,20.52
2022-09-12T07:40:16.199Z,20.53
2022-09-12T07:42:18.074Z,20.52
2022-09-12T07:44:19.797Z,20.48
2022-09-12T07:46:22.493Z,20.55
2022-09-12T07:48:24.825Z,20.52
2022-09-12T07:50:26.858Z,20.51
2022-09-12T07:52:28.621Z,20.63
2022-09-12T07:54:31.913Z,20.69
2022-09-12T07:56:38.691Z,20.80
2022-09-12T07:58:43.207Z,20.91
2022-09-12T08:00:45.981Z,21.02
2022-09-12T08:02:52.486Z,21.20
2022-09-12T08:04:54.420Z,21.31
2022-09-12T08:06:56.234Z,21.33
2022-09-12T08:08:59.685Z,21.41
2022-09-12T08:11:04.004Z,21.38
2022-09-12T08:13:05.817Z,21.36
2022-09-12T08:15:08.651Z,21.27
2022-09-12T08:17:10.412Z,21.29
2022-09-12T08:19:12.158Z,21.28
2022-09-12T08:21:20.981Z,21.15
2022-09-12T08:23:23.656Z,21.15
2022-09-12T08:25:26.066Z,21.21
2022-09-12T08:27:27.822Z,21.19
2022-09-12T08:29:29.555Z,21.21
2022-09-12T08:31:36.776Z,21.11
2022-09-12T08:33:38.887Z,21.16
2022-09-12T08:35:40.730Z,21.18
2022-09-12T08:37:42.506Z,21.13
2022-09-12T08:39:44.749Z,21.15
2022-09-12T08:41:48.772Z,21.12
2022-09-12T08:44:03.053Z,21.13
2022-09-12T08:46:11.172Z,21.21
2022-09-12T08:48:14.429Z,21.25
2022-09-12T08:50:19.869Z,21.33
2022-09-12T08:52:25.809Z,21.39
2022-09-12T08:54:31.170Z,21.36
2022-09-12T08:56:38.255Z,21.37
2022-09-12T08:58:43.348Z,21.37
2022-09-12T09:00:48.103Z,21.38
2022-09-12T09:03:01.878Z,21.37
2022-09-12T09:05:12.162Z,21.45
2022-09-12T09:07:26.049Z,21.59
2022-09-12T09:09:49.122Z,21.64
2022-09-12T09:12:15.035Z,21.71
2022-09-12T09:14:44.645Z,21.87
2022-09-12T09:16:50.002Z,22.01
2022-09-12T09:18:55.089Z,22.13
2022-09-12T09:21:16.718Z,22.23
2022-09-12T09:23:33.790Z,22.21
2022-09-12T09:25:41.631Z,22.24
2022-09-12T09:28:09.443Z,22.24
2022-09-12T09:30:20.227Z,22.31
2022-09-12T09:32:28.383Z,22.33
2022-09-12T09:34:31.663Z,22.33
2022-09-12T09:37:07.731Z,22.36
2022-09-12T09:39:28.713Z,22.47
2022-09-12T09:41:30.432Z,22.54
2022-09-12T09:43:32.437Z,22.61
2022-09-12T09:45:34.220Z,22.69
2022-09-12T09:47:36.000Z,22.72
2022-09-12T09:49:37.838Z,22.85
2022-09-12T09:51:42.367Z,22.97
2022-09-12T09:53:53.288Z,22.99
2022-09-12T09:55:56.943Z,23.05
2022-09-12T09:57:58.674Z,23.11
2022-09-12T10:00:30.523Z,23.16
2022-09-12T10:02:32.712Z,23.23
2022-09-12T10:04:41.559Z,23.12
2022-09-12T10:06:44.342Z,23.10
2022-09-12T10:08:48.686Z,23.07
2022-09-12T10:10:57.470Z,23.17
2022-09-12T10:13:34.152Z,23.35
2022-09-12T10:15:36.659Z,23.50
2022-09-12T10:17:46.559Z,23.56
2022-09-12T10:19:59.876Z,23.68
2022-09-12T10:22:20.223Z,23.78
2022-09-12T10:24:26.726Z,23.87
2022-09-12T10:26:34.170Z,23.85
2022-09-12T10:28:40.039Z,23.85
2022-09-12T10:30:52.733Z,23.81
2022-09-12T10:32:59.617Z,23.89
2022-09-12T10:35:09.216Z,23.93
2022-09-12T10:37:19.958Z,23.98
2022-09-12T10:39:22.537Z,24.06
2022-09-12T10:41:25.134Z,24.15
2022-09-12T10:43:35.003Z,24.23
2022-09-12T10:45:37.921Z,24.31
2022-09-12T10:47:39.758Z,24.41
2022-09-12T10:49:41.571Z,24.48
2022-09-12T10:51:43.313Z,24.59
2022-09-12T10:53:46.825Z,24.65
2022-09-12T10:56:22.915Z,24.63
2022-09-12T10:58:46.733Z,24.59
2022-09-12T11:01:00.828Z,24.44
2022-09-12T11:03:16.516Z,24.43
2022-09-12T11:05:39.002Z,24.58
2022-09-12T11:07:47.341Z,24.65
2022-09-12T11:09:58.664Z,24.78
2022-09-12T11:12:38.468Z,24.92
2022-09-12T11:14:52.669Z,25.01
2022-09-12T11:17:18.583Z,25.08
2022-09-12T11:19:57.742Z,24.99
2022-09-12T11:22:34.410Z,25.01
2022-09-12T11:24:54.079Z,25.03
2022-09-12T11:27:11.465Z,25.04
2022-09-12T11:29:13.456Z,24.93
2022-09-12T11:31:48.004Z,24.86
2022-09-12T11:33:56.708Z,24.92
2022-09-12T11:36:02.839Z,24.93
2022-09-12T11:38:21.213Z,24.97
2022-09-12T11:40:42.224Z,25.01
2022-09-12T11:42:46.172Z,25.13
2022-09-12T11:44:59.351Z,25.15
2022-09-12T11:47:08.615Z,25.16
2022-09-12T11:49:13.670Z,25.24
2022-09-12T11:51:25.765Z,25.23
2022-09-12T11:53:37.048Z,25.24
2022-09-12T11:55:58.673Z,25.20
2022-09-12T11:58:01.025Z,25.32
2022-09-12T12:00:21.917Z,25.29
2022-09-12T12:02:29.935Z,25.33
2022-09-12T12:05:00.024Z,25.25
2022-09-12T12:07:08.033Z,25.32
2022-09-12T12:09:13.656Z,25.36
2022-09-12T12:11:35.930Z,25.36
2022-09-12T12:13:52.081Z,25.29
2022-09-12T12:15:59.730Z,25.38
2022-09-12T12:18:18.750Z,25.44
2022-09-12T12:20:23.702Z,25.42
2022-09-12T12:22:26.365Z,25.33
2022-09-12T12:24:32.419Z,25.31
2022-09-12T12:26:43.293Z,25.18
2022-09-12T12:28:50.959Z,25.18
2022-09-12T12:31:01.019Z,25.15
2022-09-12T12:33:26.036Z,25.04
2022-09-12T12:35:41.902Z,24.98
2022-09-12T12:37:44.024Z,24.96
2022-09-12T12:39:49.423Z,24.98
2022-09-12T12:41:51.800Z,24.96
2022-09-12T12:43:57.967Z,24.98
2022-09-12T12:46:03.216Z,24.99
2022-09-12T12:48:12.048Z,24.92
2022-09-12T12:50:14.189Z,24.98
2022-09-12T12:52:18.052Z,24.96
2022-09-12T12:54:41.409Z,24.95
2022-09-12T12:56:44.450Z,24.99
2022-09-12T12:58:46.630Z,24.96
2022-09-12T13:01:13.689Z,24.91
2022-09-12T13:03:31.313Z,24.88
2022-09-12T13:05:44.327Z,24.88
2022-09-12T13:07:48.346Z,24.98
2022-09-12T13:09:53.133Z,24.99
2022-09-12T13:12:05.626Z,25.03
2022-09-12T13:14:42.925Z,24.99
2022-09-12T13:16:59.125Z,24.99
2022-09-12T13:19:17.959Z,24.93
2022-09-12T13:21:22.516Z,24.95
2022-09-12T13:23:30.576Z,24.97
2022-09-12T13:25:37.303Z,24.99
2022-09-12T13:27:39.684Z,24.99
2022-09-12T13:29:42.371Z,24.98
2022-09-12T13:31:47.586Z,24.97
2022-09-12T13:33:52.244Z,24.97
2022-09-12T13:36:05.305Z,24.94
2022-09-12T13:38:36.039Z,24.90
2022-09-12T13:41:06.095Z,24.93
2022-09-12T13:43:17.076Z,24.98
2022-09-12T13:45:22.029Z,25.03
2022-09-12T13:47:37.176Z,24.93
2022-09-12T13:49:41.122Z,25.03
2022-09-12T13:51:43.806Z,25.09
2022-09-12T13:53:48.293Z,25.07
2022-09-12T13:55:57.345Z,25.07
2022-09-12T13:58:02.541Z,25.05
2022-09-12T14:00:25.080Z,25.03
2022-09-12T14:02:29.898Z,25.03
2022-09-12T14:04:50.740Z,25.06
2022-09-12T14:06:53.338Z,25.09
2022-09-12T14:09:01.569Z,24.99
2022-09-12T14:11:10.086Z,24.91
2022-09-12T14:13:18.323Z,24.90
2022-09-12T14:15:27.191Z,24.82
2022-09-12T14:17:36.364Z,24.83
2022-09-12T14:19:38.931Z,24.91
2022-09-12T14:21:41.525Z,24.94
2022-09-12T14:23:48.239Z,24.94
2022-09-12T14:25:52.245Z,24.93
2022-09-12T14:27:56.578Z,24.89
2022-09-12T14:30:25.488Z,24.87
2022-09-12T14:32:27.932Z,24.90
2022-09-12T14:34:30.242Z,24.92
2022-09-12T14:36:40.311Z,24.89
2022-09-12T14:38:49.630Z,24.91
2022-09-12T14:40:59.887Z,24.95
2022-09-12T14:43:03.249Z,24.95
2022-09-12T14:45:18.210Z,24.90
2022-09-12T14:47:25.351Z,24.91
2022-09-12T14:49:35.214Z,24.89
2022-09-12T14:51:47.125Z,24.89
2022-09-12T14:53:52.026Z,24.91
2022-09-12T14:56:12.212Z,24.84
2022-09-12T14:58:26.648Z,24.79
2022-09-12T15:00:29.054Z,24.83
2022-09-12T15:02:31.130Z,24.83
2022-09-12T15:04:44.521Z,24.79
2022-09-12T15:06:46.798Z,24.81
2022-09-12T15:08:49.377Z,24.80
2022-09-12T15:10:51.633Z,24.78
2022-09-12T15:13:09.426Z,24.71
2022-09-12T15:15:18.792Z,24.69
2022-09-12T15:17:20.881Z,24.67
2022-09-12T15:19:23.211Z,24.65
2022-09-12T15:21:25.609Z,24.62
2022-09-12T15:23:40.497Z,24.53
2022-09-12T15:25:42.568Z,24.51
2022-09-12T15:27:50.583Z,24.49
2022-09-12T15:29:53.553Z,24.45
2022-09-12T15:31:55.672Z,24.43
2022-09-12T15:34:00.572Z,24.38
2022-09-12T15:36:14.011Z,24.31
2022-09-12T15:38:16.865Z,24.28
2022-09-12T15:40:20.325Z,24.27
2022-09-12T15:42:30.021Z,24.17
2022-09-12T15:44:32.285Z,24.19
2022-09-12T15:46:34.507Z,24.15
2022-09-12T15:48:36.582Z,24.08
2022-09-12T15:50:38.696Z,24.05
2022-09-12T15:52:41.679Z,24.01
2022-09-12T15:54:44.425Z,23.97
2022-09-12T15:56:47.141Z,23.91
2022-09-12T15:58:58.816Z,23.85
2022-09-12T16:01:04.368Z,23.80
2022-09-12T16:03:06.570Z,23.75
2022-09-12T16:05:16.512Z,23.68
2022-09-12T16:07:18.973Z,23.66
2022-09-12T16:09:22.575Z,23.61
2022-09-12T16:11:27.437Z,23.56
2022-09-12T16:13:29.784Z,23.52
2022-09-12T16:15:34.906Z,23.47
2022-09-12T16:17:37.118Z,23.43
2022-09-12T16:19:39.246Z,23.39
2022-09-12T16:21:41.129Z,23.34
2022-09-12T16:23:44.471Z,23.31
2022-09-12T16:25:55.896Z,23.28
2022-09-12T16:27:58.175Z,23.24
2022-09-12T16:30:01.016Z,23.20
2022-09-12T16:32:04.162Z,23.19
2022-09-12T16:34:06.785Z,23.16
2022-09-12T16:36:17.750Z,23.10
2022-09-12T16:38:20.932Z,23.10
2022-09-12T16:40:23.973Z,23.07
2022-09-12T16:42:26.591Z,23.03
2022-09-12T16:44:29.183Z,23.00
2022-09-12T16:46:31.751Z,22.98
2022-09-12T16:48:34.407Z,22.95
2022-09-12T16:50:37.817Z,22.92
2022-09-12T16:52:40.210Z,22.90
2022-09-12T16:54:44.300Z,22.88
2022-09-12T16:56:47.190Z,22.84
2022-09-12T16:58:52.150Z,22.81
2022-09-12T17:01:03.037Z,22.73
2022-09-12T17:03:05.019Z,22.75
2022-09-12T17:05:07.477Z,22.72
2022-09-12T17:07:10.056Z,22.70
2022-09-12T17:09:13.150Z,22.68
2022-09-12T17:11:17.936Z,22.65
2022-09-12T17:13:19.643Z,22.62
2022-09-12T17:15:21.600Z,22.59
2022-09-12T17:17:23.352Z,22.57
2022-09-12T17:19:28.209Z,22.55
2022-09-12T17:21:30.153Z,22.53
2022-09-12T17:23:32.749Z,22.51
2022-09-12T17:25:34.451Z,22.49
2022-09-12T17:27:36.187Z,22.46
2022-09-12T17:29:38.760Z,22.43
2022-09-12T17:31:41.679Z,22.41
2022-09-12T17:33:43.708Z,22.38
2022-09-12T17:35:45.640Z,22.36
2022-09-12T17:37:47.316Z,22.33
2022-09-12T17:39:49.648Z,22.32
2022-09-12T17:41:51.981Z,22.29
2022-09-12T17:43:58.033Z,22.25
2022-09-12T17:45:59.719Z,22.24
2022-09-12T17:48:02.105Z,22.22
2022-09-12T17:50:30.026Z,22.20
2022-09-12T17:52:25.735Z,22.19
2022-09-12T17:54:27.834Z,22.18
2022-09-12T17:56:31.635Z,22.19
2022-09-12T17:58:34.433Z,22.12
2022-09-12T18:00:54.822Z,21.99
2022-09-12T18:02:57.554Z,21.92
2022-09-12T18:04:59.531Z,21.86
2022-09-12T18:07:01.831Z,21.70
2022-09-12T18:09:06.539Z,21.59
2022-09-12T18:11:08.533Z,21.55
2022-09-12T18:13:12.169Z,21.39
2022-09-12T18:15:14.011Z,21.38
2022-09-12T18:17:16.273Z,21.25
2022-09-12T18:19:18.373Z,21.17
2022-09-12T18:21:20.089Z,21.13
2022-09-12T18:23:22.393Z,21.09
2022-09-12T18:25:24.391Z,21.00
2022-09-12T18:27:26.113Z,20.94
2022-09-12T18:29:28.330Z,20.90
2022-09-12T18:31:30.504Z,20.85
2022-09-12T18:33:33.989Z,20.80
2022-09-12T18:35:38.218Z,20.82
2022-09-12T18:37:42.934Z,20.66
2022-09-12T18:39:44.906Z,20.63
2022-09-12T18:41:46.750Z,20.55
2022-09-12T18:43:49.871Z,20.51
2022-09-12T18:45:51.893Z,20.52
2022-09-12T18:47:53.525Z,20.43
2022-09-12T18:49:55.285Z,20.37
2022-09-12T18:51:57.085Z,20.37
2022-09-12T18:54:06.134Z,20.36
2022-09-12T18:56:11.533Z,20.38
2022-09-12T18:58:13.234Z,20.34
2022-09-12T19:00:15.197Z,20.31
2022-09-12T19:02:16.989Z,20.25
2022-09-12T19:04:18.694Z,20.24
2022-09-12T19:06:26.224Z,20.14
2022-09-12T19:08:28.361Z,20.20
2022-09-12T19:10:35.488Z,20.21
2022-09-12T19:12:37.533Z,20.25
2022-09-12T19:14:39.615Z,20.22
2022-09-12T19:16:41.789Z,20.20
2022-09-12T19:18:44.350Z,20.16
2022-09-12T19:20:51.501Z,20.09
2022-09-12T19:22:53.568Z,20.14
2022-09-12T19:24:55.393Z,20.24
2022-09-12T19:26:57.442Z,20.23
2022-09-12T19:29:00.174Z,20.26
2022-09-12T19:31:06.644Z,20.21
2022-09-12T19:33:08.966Z,20.18
2022-09-12T19:35:13.012Z,20.21
2022-09-12T19:37:14.862Z,20.18
2022-09-12T19:39:19.708Z,20.15
2022-09-12T19:41:21.808Z,20.13
2022-09-12T19:43:23.924Z,20.11
2022-09-12T19:45:25.797Z,19.99
2022-09-12T19:47:27.696Z,20.02
2022-09-12T19:49:29.639Z,19.96
2022-09-12T19:51:31.554Z,19.98
2022-09-12T19:53:33.766Z,19.98
2022-09-12T19:55:36.559Z,20.10
2022-09-12T19:57:38.437Z,20.12
2022-09-12T19:59:40.373Z,20.19
2022-09-12T20:01:42.215Z,20.25
2022-09-12T20:03:44.954Z,20.25
2022-09-12T20:05:46.829Z,20.30
2022-09-12T20:07:48.673Z,20.37
2022-09-12T20:09:50.481Z,20.38
2022-09-12T20:11:52.363Z,20.41
2022-09-12T20:13:54.349Z,20.43
2022-09-12T20:15:56.378Z,20.45
2022-09-12T20:17:58.847Z,20.44
2022-09-12T20:20:00.858Z,20.35
2022-09-12T20:22:03.434Z,20.25
2022-09-12T20:24:08.378Z,20.17
2022-09-12T20:26:10.982Z,20.10
2022-09-12T20:28:12.748Z,20.15
2022-09-12T20:30:15.634Z,20.17
2022-09-12T20:32:18.373Z,20.10
2022-09-12T20:34:21.539Z,20.16
2022-09-12T20:36:25.196Z,20.18
2022-09-12T20:38:27.013Z,20.22
2022-09-12T20:40:28.890Z,20.21
2022-09-12T20:42:30.715Z,20.24
2022-09-12T20:44:32.497Z,20.26
2022-09-12T20:46:34.494Z,20.27
2022-09-12T20:48:37.099Z,20.20
2022-09-12T20:50:38.916Z,20.23
2022-09-12T20:52:40.912Z,20.20
2022-09-12T20:54:42.665Z,20.22
2022-09-12T20:56:44.731Z,20.18
2022-09-12T20:58:46.512Z,20.20
2022-09-12T21:00:48.814Z,20.19
2022-09-12T21:02:51.804Z,20.26
2022-09-12T21:04:54.274Z,20.28
2022-09-12T21:06:56.173Z,20.27
2022-09-12T21:09:00.976Z,20.21
2022-09-12T21:11:03.914Z,20.22
2022-09-12T21:13:05.914Z,20.26
2022-09-12T21:15:08.362Z,20.28
2022-09-12T21:17:10.330Z,20.26
2022-09-12T21:19:12.157Z,20.26
2022-09-12T21:21:16.338Z,20.26
2022-09-12T21:23:18.340Z,20.27
2022-09-12T21:25:20.319Z,20.23
2022-09-12T21:27:22.203Z,20.21
2022-09-12T21:29:24.612Z,20.26
2022-09-12T21:31:26.729Z,20.23
2022-09-12T21:33:28.963Z,20.21
2022-09-12T21:35:31.058Z,20.23
2022-09-12T21:37:33.322Z,20.22
2022-09-12T21:39:35.470Z,20.23
2022-09-12T21:41:37.512Z,20.21
2022-09-12T21:43:40.627Z,20.20
2022-09-12T21:45:42.576Z,20.17
2022-09-12T21:47:45.099Z,20.14
2022-09-12T21:49:47.118Z,20.14
2022-09-12T21:51:49.124Z,20.10
2022-09-12T21:53:51.096Z,20.09
2022-09-12T21:55:53.503Z,20.00
2022-09-12T21:57:55.811Z,20.00
2022-09-12T21:59:58.155Z,19.93
2022-09-12T22:02:00.522Z,19.93
2022-09-12T22:04:02.587Z,19.89
2022-09-12T22:06:06.395Z,19.85
2022-09-12T22:08:08.397Z,19.82
2022-09-12T22:10:10.910Z,19.78
2022-09-12T22:12:12.738Z,19.72
2022-09-12T22:14:15.154Z,19.68
2022-09-12T22:16:17.835Z,19.65
2022-09-12T22:18:19.873Z,19.59
2022-09-12T22:20:21.823Z,19.50
2022-09-12T22:22:42.194Z,19.48
2022-09-12T22:24:44.291Z,19.42
2022-09-12T22:26:46.502Z,19.35
2022-09-12T22:28:49.349Z,19.31
2022-09-12T22:30:51.581Z,19.24
2022-09-12T22:32:53.476Z,19.22
2022-09-12T22:34:55.729Z,19.20
2022-09-12T22:36:57.721Z,19.14
2022-09-12T22:39:00.329Z,19.09
2022-09-12T22:41:09.838Z,19.01
2022-09-12T22:43:11.904Z,18.98
2022-09-12T22:45:13.970Z,18.95
2022-09-12T22:47:15.944Z,18.90
2022-09-12T22:49:17.856Z,18.86
2022-09-12T22:51:19.909Z,18.86
2022-09-12T22:53:21.802Z,18.84
2022-09-12T22:55:23.883Z,18.78
2022-09-12T22:57:26.108Z,18.78
2022-09-12T22:59:28.157Z,18.68
2022-09-12T23:01:31.975Z,18.66
2022-09-12T23:03:34.559Z,18.63
2022-09-12T23:05:37.107Z,18.61
2022-09-12T23:07:38.986Z,18.59
2022-09-12T23:09:40.983Z,18.56
2022-09-12T23:11:42.847Z,18.54
2022-09-12T23:13:47.965Z,18.46
2022-09-12T23:15:57.730Z,18.39
2022-09-12T23:18:00.031Z,18.38
2022-09-12T23:20:02.197Z,18.40
2022-09-12T23:22:04.576Z,18.33
2022-09-12T23:24:06.709Z,18.32
2022-09-12T23:26:12.767Z,18.25
2022-09-12T23:28:14.824Z,18.25
2022-09-12T23:30:21.359Z,18.23
2022-09-12T23:32:23.216Z,18.14
2022-09-12T23:34:25.032Z,18.09
2022-09-12T23:36:27.375Z,18.08
2022-09-12T23:38:31.034Z,18.02
2022-09-12T23:40:32.856Z,18.00
2022-09-12T23:42:34.682Z,17.97
2022-09-12T23:44:36.873Z,17.95
2022-09-12T23:46:38.768Z,17.89
2022-09-12T23:48:41.031Z,17.87
2022-09-12T23:50:47.662Z,17.75
2022-09-12T23:52:49.623Z,17.76
2022-09-12T23:54:51.621Z,17.68
2022-09-12T23:56:53.861Z,17.67
2022-09-12T23:58:55.995Z,17.64
